Time;durP1;ratioP1;P1;durP2;ratioP2;P2;SDS_P1;SDS_P2;PMS_P1;PMS_P2;Temp;Humidity;BMP_temperature;BMP_pressure;BME280_temperature;BME280_humidity;BME280_pressure;Samples;Min_cycle;Max_cycle;Signal;HPM_P1;HPM_P2
2024/02/01 00:01:23;;;;;;;6.10;5.30;;;5.70;1.00;;;;;;6193604;23;20203;-87
2024/02/01 00:03:50;;;;;;;8.65;6.20;;;5.70;1.00;;;;;;6193908;23;20191;-86
2024/02/01 00:06:26;;;;;;;6.88;5.50;;;5.70;1.00;;;;;;6199824;23;20175;-88
2024/02/01 00:08:53;;;;;;;7.95;5.03;;;5.70;1.00;;;;;;6198465;23;20183;-86
2024/02/01 00:11:19;;;;;;;7.40;6.38;;;5.70;1.00;;;;;;6211040;23;20179;-84
2024/02/01 00:13:53;;;;;;;6.85;6.15;;;5.60;1.00;;;;;;6204685;23;20186;-88
2024/02/01 00:16:22;;;;;;;6.60;6.00;;;5.60;1.00;;;;;;6210515;23;20198;-87
2024/02/01 00:18:49;;;;;;;7.00;5.80;;;5.70;1.00;;;;;;6210738;23;20168;-88
2024/02/01 00:21:18;;;;;;;11.85;5.38;;;5.60;1.00;;;;;;6213140;23;20202;-87
2024/02/01 00:23:45;;;;;;;7.75;6.95;;;5.60;1.00;;;;;;6204229;23;20274;-87
2024/02/01 00:26:12;;;;;;;7.32;5.80;;;5.60;1.00;;;;;;6196492;23;20211;-87
2024/02/01 00:28:39;;;;;;;9.02;5.93;;;5.50;1.00;;;;;;6198793;23;20203;-87
2024/02/01 00:31:05;;;;;;;8.13;7.13;;;5.60;1.00;;;;;;6197114;23;20180;-86
2024/02/01 00:33:32;;;;;;;7.80;6.15;;;5.60;1.00;;;;;;6197596;23;20196;-88
2024/02/01 00:35:59;;;;;;;7.18;5.47;;;5.60;1.00;;;;;;6202802;23;20187;-87
2024/02/01 00:38:28;;;;;;;7.78;6.47;;;5.60;1.00;;;;;;6200430;23;20203;-87
2024/02/01 00:41:04;;;;;;;7.05;6.35;;;5.60;1.00;;;;;;6201959;23;20210;-89
2024/02/01 00:43:31;;;;;;;9.35;6.63;;;5.70;1.00;;;;;;6197009;23;20196;-87
2024/02/01 00:45:59;;;;;;;7.10;5.72;;;5.70;1.00;;;;;;6195216;23;20255;-86
2024/02/01 00:48:26;;;;;;;8.63;6.55;;;5.60;1.00;;;;;;6195332;23;20345;-88
2024/02/01 00:50:54;;;;;;;7.22;5.78;;;5.60;1.00;;;;;;6206737;23;20199;-85
2024/02/01 00:53:22;;;;;;;6.45;5.82;;;5.60;1.00;;;;;;6215300;23;20210;-85
2024/02/01 00:55:51;;;;;;;6.93;6.22;;;5.60;1.00;;;;;;6204695;23;20172;-88
2024/02/01 00:58:17;;;;;;;8.48;6.63;;;5.60;1.00;;;;;;6203935;23;20210;-85
2024/02/01 01:00:44;;;;;;;8.18;7.00;;;5.60;1.00;;;;;;6214151;23;20172;-87
2024/02/01 01:03:11;;;;;;;6.50;5.88;;;5.60;1.00;;;;;;6202289;23;20200;-87
2024/02/01 01:05:38;;;;;;;7.07;6.38;;;5.70;1.00;;;;;;6196799;23;20207;-86
2024/02/01 01:08:06;;;;;;;10.77;6.30;;;5.70;1.00;;;;;;6195980;23;20207;-87
2024/02/01 01:10:33;;;;;;;8.73;6.38;;;5.70;1.00;;;;;;6197166;23;20566;-87
2024/02/01 01:13:03;;;;;;;11.20;6.22;;;5.70;1.00;;;;;;6212315;23;20191;-86
2024/02/01 01:15:30;;;;;;;7.90;7.10;;;5.70;1.00;;;;;;6212047;23;20196;-85
2024/02/01 01:17:57;;;;;;;7.65;6.20;;;5.70;1.00;;;;;;6214037;23;20184;-86
2024/02/01 01:20:24;;;;;;;7.53;6.75;;;5.70;1.00;;;;;;6213751;23;20176;-85
2024/02/01 01:22:53;;;;;;;8.23;6.75;;;5.70;1.00;;;;;;6209621;23;20224;-86
2024/02/01 01:25:22;;;;;;;7.60;6.15;;;5.70;1.00;;;;;;6197555;23;20186;-87
2024/02/01 01:27:49;;;;;;;7.97;6.60;;;5.70;1.00;;;;;;6197130;23;20562;-88
2024/02/01 01:30:17;;;;;;;9.35;6.82;;;5.70;1.00;;;;;;6194111;23;20210;-87
2024/02/01 01:32:44;;;;;;;8.80;7.07;;;5.70;1.00;;;;;;6196164;23;20199;-87
2024/02/01 01:35:11;;;;;;;7.50;6.75;;;5.80;1.00;;;;;;6195149;23;20234;-88
2024/02/01 01:37:38;;;;;;;7.20;6.25;;;5.70;1.00;;;;;;6192707;23;20183;-87
2024/02/01 01:40:06;;;;;;;7.97;6.68;;;5.70;1.00;;;;;;6193784;23;20209;-88
2024/02/01 01:42:33;;;;;;;11.00;6.50;;;5.70;1.00;;;;;;6193851;23;20674;-87
2024/02/01 01:45:00;;;;;;;6.90;6.30;;;5.80;1.00;;;;;;6195755;23;20199;-86
2024/02/01 01:47:30;;;;;;;7.65;6.82;;;5.80;1.00;;;;;;6194749;23;20194;-87
2024/02/01 01:49:57;;;;;;;7.47;6.70;;;5.80;1.00;;;;;;6193171;23;20274;-87
2024/02/01 01:52:25;;;;;;;8.68;6.80;;;5.80;1.00;;;;;;6194332;23;20219;-87
2024/02/01 01:54:53;;;;;;;6.97;6.32;;;5.80;1.00;;;;;;6193329;23;20182;-86
2024/02/01 01:57:20;;;;;;;8.90;6.72;;;5.80;1.00;;;;;;6194512;23;20218;-86
2024/02/01 01:59:47;;;;;;;8.05;6.32;;;5.80;1.00;;;;;;6191801;23;20211;-86
2024/02/01 02:02:14;;;;;;;8.50;6.60;;;5.80;1.00;;;;;;6200735;23;20191;-87
2024/02/01 02:04:43;;;;;;;9.40;5.97;;;5.80;1.00;;;;;;6207499;23;20227;-84
2024/02/01 02:07:10;;;;;;;8.43;6.40;;;5.80;1.00;;;;;;6214842;23;20195;-85
2024/02/01 02:09:37;;;;;;;9.63;6.78;;;5.80;1.00;;;;;;6214086;23;20186;-86
2024/02/01 02:12:05;;;;;;;7.15;6.45;;;5.80;1.00;;;;;;6213865;23;20203;-87
2024/02/01 02:14:32;;;;;;;10.73;7.00;;;5.80;1.00;;;;;;6214094;23;20182;-88
2024/02/01 02:16:59;;;;;;;8.10;5.55;;;5.80;1.00;;;;;;6213426;23;20182;-86
2024/02/01 02:19:29;;;;;;;6.43;5.90;;;5.80;1.00;;;;;;6212640;23;20176;-84
2024/02/01 02:21:58;;;;;;;7.60;6.78;;;5.90;1.00;;;;;;6213900;23;20179;-85
2024/02/01 02:24:27;;;;;;;7.68;6.03;;;5.90;1.00;;;;;;6205974;23;20195;-86
2024/02/01 02:26:57;;;;;;;8.43;6.20;;;5.90;1.00;;;;;;6194635;23;20180;-87
2024/02/01 02:29:24;;;;;;;9.05;6.47;;;5.90;1.00;;;;;;6193635;23;20187;-88
2024/02/01 02:31:51;;;;;;;7.53;6.78;;;5.90;1.00;;;;;;6194472;23;20231;-86
2024/02/01 02:34:18;;;;;;;8.07;7.28;;;5.90;35.70;;;;;;6197765;23;20209;-87
2024/02/01 02:36:45;;;;;;;8.23;6.70;;;5.80;99.90;;;;;;6193567;23;20179;-87
2024/02/01 02:39:14;;;;;;;10.40;6.85;;;5.70;99.90;;;;;;6191472;23;20188;-87
2024/02/01 02:41:41;;;;;;;8.55;6.80;;;5.60;99.90;;;;;;6187822;23;20590;-87
2024/02/01 02:44:10;;;;;;;8.45;7.65;;;5.50;1.00;;;;;;6188990;23;20195;-87
2024/02/01 02:46:39;;;;;;;7.03;6.43;;;5.60;39.50;;;;;;6190190;23;20198;-86
2024/02/01 02:49:08;;;;;;;8.25;7.43;;;5.40;99.90;;;;;;6190000;23;20200;-87
2024/02/01 02:51:35;;;;;;;14.07;8.43;;;5.40;1.00;;;;;;6189550;23;20558;-86
2024/02/01 02:54:02;;;;;;;8.10;7.20;;;5.40;99.90;;;;;;6190693;23;20254;-86
2024/02/01 02:56:30;;;;;;;10.38;7.82;;;5.40;37.40;;;;;;6190926;23;20509;-86
2024/02/01 02:58:57;;;;;;;8.27;7.20;;;5.30;99.90;;;;;;6191125;23;20266;-86
2024/02/01 03:01:24;;;;;;;12.68;8.25;;;5.30;1.00;;;;;;6191752;23;20202;-87
2024/02/01 03:03:51;;;;;;;14.75;7.45;;;5.20;1.00;;;;;;6192020;23;20279;-87
2024/02/01 03:06:21;;;;;;;14.25;8.23;;;5.20;99.90;;;;;;6194455;23;20198;-87
2024/02/01 03:08:48;;;;;;;13.90;7.93;;;5.30;99.90;;;;;;6192665;23;20569;-87
2024/02/01 03:11:15;;;;;;;9.93;7.70;;;5.30;1.00;;;;;;6192406;23;20207;-86
2024/02/01 03:13:45;;;;;;;11.45;7.72;;;5.20;1.00;;;;;;6190698;23;20192;-86
2024/02/01 03:16:20;;;;;;;10.05;7.70;;;5.20;99.90;;;;;;6192803;23;20164;-86
2024/02/01 03:18:50;;;;;;;9.68;7.38;;;5.20;99.90;;;;;;6210086;23;20167;-86
2024/02/01 03:21:18;;;;;;;11.68;8.30;;;5.20;99.90;;;;;;6240605;23;20292;-84
2024/02/01 03:23:47;;;;;;;10.43;8.10;;;5.10;1.00;;;;;;6254109;23;20194;-85
2024/02/01 03:26:14;;;;;;;9.88;8.43;;;5.10;1.00;;;;;;6253303;23;20198;-85
2024/02/01 03:28:47;;;;;;;11.32;8.18;;;5.10;1.00;;;;;;6253543;23;20178;-85
2024/02/01 03:31:14;;;;;;;13.60;8.18;;;5.10;1.00;;;;;;6262121;23;20201;-85
2024/02/01 03:33:44;;;;;;;9.38;8.40;;;5.00;99.90;;;;;;6257662;23;20174;-85
2024/02/01 03:36:14;;;;;;;10.18;8.18;;;5.10;99.90;;;;;;6254121;23;20237;-85
2024/02/01 03:38:42;;;;;;;10.88;9.40;;;5.00;99.90;;;;;;6254132;23;20189;-85
2024/02/01 03:41:11;;;;;;;8.05;7.25;;;5.00;1.00;;;;;;6252453;23;20287;-84
2024/02/01 03:43:39;;;;;;;9.13;8.20;;;5.00;1.00;;;;;;6253115;23;20566;-85
2024/02/01 03:46:07;;;;;;;11.23;7.68;;;4.90;1.00;;;;;;6255251;23;20178;-85
2024/02/01 03:48:34;;;;;;;10.70;8.65;;;4.90;1.00;;;;;;6254210;23;20228;-86
2024/02/01 03:51:03;;;;;;;9.35;8.20;;;4.90;1.00;;;;;;6253350;23;20297;-85
2024/02/01 03:53:29;;;;;;;8.98;7.50;;;4.90;1.00;;;;;;6253822;23;20208;-85
2024/02/01 03:55:56;;;;;;;10.90;7.75;;;4.80;1.00;;;;;;6254892;23;20174;-85
2024/02/01 03:58:26;;;;;;;11.02;8.52;;;4.80;29.90;;;;;;6255097;23;20174;-85
2024/02/01 04:00:56;;;;;;;14.57;9.25;;;4.80;52.20;;;;;;6252511;23;20281;-85
2024/02/01 04:03:24;;;;;;;9.85;8.50;;;4.70;81.30;;;;;;6253192;23;20163;-85
2024/02/01 04:05:52;;;;;;;14.85;8.25;;;4.70;98.80;;;;;;6253415;23;20174;-85
2024/02/01 04:08:19;;;;;;;11.30;8.98;;;4.70;99.90;;;;;;6253513;23;20178;-85
2024/02/01 04:10:46;;;;;;;9.75;8.85;;;4.70;99.90;;;;;;6252707;23;20254;-86
2024/02/01 04:13:13;;;;;;;8.85;7.88;;;4.80;99.90;;;;;;6252539;23;20249;-85
2024/02/01 04:15:42;;;;;;;9.20;8.20;;;4.70;99.90;;;;;;6254600;23;20179;-85
2024/02/01 04:18:09;;;;;;;11.30;8.73;;;4.80;99.90;;;;;;6268484;23;20233;-86
2024/02/01 04:20:39;;;;;;;13.00;9.98;;;4.80;99.90;;;;;;6270575;23;20234;-86
2024/02/01 04:23:05;;;;;;;10.52;9.40;;;4.80;99.90;;;;;;6262754;23;20203;-85
2024/02/01 04:25:32;;;;;;;15.50;10.93;;;4.80;99.90;;;;;;6257891;23;20178;-86
2024/02/01 04:28:01;;;;;;;13.43;10.48;;;4.80;99.90;;;;;;6264427;23;20179;-85
2024/02/01 04:30:28;;;;;;;29.48;24.52;;;4.70;99.90;;;;;;6265728;23;20261;-85
2024/02/01 04:32:55;;;;;;;52.35;43.42;;;4.80;99.90;;;;;;6270526;23;20189;-85
2024/02/01 04:35:23;;;;;;;43.03;38.03;;;4.90;99.90;;;;;;6272400;23;20230;-85
2024/02/01 04:37:52;;;;;;;60.95;47.42;;;4.90;99.90;;;;;;6265857;23;20174;-85
2024/02/01 04:40:21;;;;;;;74.50;53.05;;;4.90;99.90;;;;;;6256898;23;20197;-86
2024/02/01 04:42:51;;;;;;;96.72;70.50;;;4.90;99.90;;;;;;6253298;23;20170;-86
2024/02/01 04:45:18;;;;;;;91.78;63.45;;;5.00;99.90;;;;;;6252642;23;20194;-86
2024/02/01 04:47:45;;;;;;;107.32;69.45;;;5.00;99.90;;;;;;6253235;23;20240;-86
2024/02/01 04:50:13;;;;;;;100.38;65.97;;;5.00;99.90;;;;;;6256901;23;20198;-85
2024/02/01 04:52:41;;;;;;;106.15;73.72;;;5.00;99.90;;;;;;6253225;23;20206;-85
2024/02/01 04:55:10;;;;;;;81.25;54.38;;;5.00;99.90;;;;;;6265557;22;20214;-85
2024/02/01 04:57:40;;;;;;;80.03;53.03;;;5.00;99.90;;;;;;6267172;23;20241;-86
2024/02/01 05:00:13;;;;;;;76.50;55.70;;;5.10;99.90;;;;;;6256144;23;20225;-87
2024/02/01 05:02:40;;;;;;;40.50;33.85;;;5.10;99.90;;;;;;6261967;23;20171;-87
2024/02/01 05:05:08;;;;;;;46.13;33.47;;;5.10;99.90;;;;;;6252921;23;20194;-85
2024/02/01 05:07:35;;;;;;;50.83;39.30;;;5.10;99.90;;;;;;6253393;23;20179;-85
2024/02/01 05:10:02;;;;;;;38.90;26.35;;;5.10;99.90;;;;;;6263199;23;20206;-86
2024/02/01 05:12:31;;;;;;;26.85;21.20;;;5.10;99.90;;;;;;6254219;23;20273;-86
2024/02/01 05:14:58;;;;;;;30.40;21.65;;;5.20;99.90;;;;;;6253204;23;20249;-87
2024/02/01 05:17:30;;;;;;;17.08;12.18;;;5.20;99.90;;;;;;6252124;23;20580;-85
2024/02/01 05:20:00;;;;;;;14.15;11.93;;;5.20;99.90;;;;;;6251998;23;20202;-86
2024/02/01 05:22:27;;;;;;;13.68;11.07;;;5.30;99.90;;;;;;6255342;23;20178;-85
2024/02/01 05:24:55;;;;;;;14.10;11.90;;;5.30;99.90;;;;;;6253225;23;20190;-85
2024/02/01 05:27:24;;;;;;;16.20;10.95;;;5.40;99.90;;;;;;6264495;22;20174;-85
2024/02/01 05:29:52;;;;;;;15.50;10.50;;;5.40;1.00;;;;;;6259740;22;20195;-85
2024/02/01 05:32:19;;;;;;;14.45;11.95;;;5.40;1.00;;;;;;6259031;23;20205;-84
2024/02/01 05:34:53;;;;;;;16.30;12.20;;;5.50;1.00;;;;;;6256979;23;20563;-85
2024/02/01 05:37:20;;;;;;;18.13;12.82;;;5.50;99.90;;;;;;6255215;23;20190;-86
2024/02/01 05:39:50;;;;;;;16.15;12.23;;;5.60;99.90;;;;;;6254834;23;20221;-86
2024/02/01 05:42:16;;;;;;;16.83;11.35;;;5.70;99.90;;;;;;6252403;23;20174;-86
2024/02/01 05:44:44;;;;;;;14.23;11.60;;;5.70;99.90;;;;;;6252521;23;20281;-85
2024/02/01 05:47:12;;;;;;;14.88;11.20;;;5.70;99.90;;;;;;6253609;23;20179;-86
2024/02/01 05:49:40;;;;;;;12.60;11.40;;;5.70;99.90;;;;;;6261779;23;20202;-87
2024/02/01 05:52:10;;;;;;;17.73;12.05;;;5.70;99.90;;;;;;6259049;23;20175;-86
2024/02/01 05:54:36;;;;;;;15.95;11.07;;;5.70;99.90;;;;;;6253643;23;20181;-85
2024/02/01 05:57:09;;;;;;;13.02;11.57;;;5.80;99.90;;;;;;6252355;23;20174;-85
2024/02/01 05:59:39;;;;;;;13.80;11.30;;;5.80;99.90;;;;;;6252516;23;20198;-86
2024/02/01 06:02:06;;;;;;;14.07;11.57;;;5.80;99.90;;;;;;6258278;23;20248;-86
2024/02/01 06:04:34;;;;;;;15.70;11.80;;;5.80;99.90;;;;;;6260797;23;20210;-85
2024/02/01 06:07:01;;;;;;;14.73;12.00;;;5.80;99.90;;;;;;6265709;23;20189;-86
2024/02/01 06:09:30;;;;;;;15.00;11.43;;;5.80;99.90;;;;;;6271637;23;20179;-86
2024/02/01 06:11:58;;;;;;;16.15;11.93;;;5.80;1.00;;;;;;6266369;23;20174;-87
2024/02/01 06:14:24;;;;;;;15.07;12.40;;;5.80;1.00;;;;;;6264906;23;20178;-87
2024/02/01 06:16:52;;;;;;;15.45;12.32;;;5.80;1.00;;;;;;6268431;23;20198;-87
2024/02/01 06:19:22;;;;;;;14.02;11.68;;;5.80;1.00;;;;;;6273305;22;20159;-87
2024/02/01 06:21:51;;;;;;;16.25;11.50;;;5.80;1.00;;;;;;6274315;22;20178;-87
2024/02/01 06:24:19;;;;;;;13.88;9.77;;;5.90;1.00;;;;;;6268013;23;20162;-87
2024/02/01 06:26:51;;;;;;;13.55;11.90;;;5.80;1.00;;;;;;6263992;23;20190;-86
2024/02/01 06:29:18;;;;;;;14.30;11.45;;;5.80;1.00;;;;;;6270061;23;20174;-86
2024/02/01 06:31:46;;;;;;;14.38;11.90;;;5.90;1.00;;;;;;6271925;23;20209;-87
2024/02/01 06:34:13;;;;;;;16.90;12.15;;;5.90;1.00;;;;;;6271004;22;20228;-87
2024/02/01 06:36:51;;;;;;;15.48;12.10;;;5.90;1.00;;;;;;6270382;22;20280;-87
2024/02/01 06:39:37;;;;;;;15.35;12.32;;;5.90;1.00;;;;;;6267900;23;20170;-88
2024/02/01 06:42:13;;;;;;;20.38;13.35;;;5.90;1.00;;;;;;6258497;23;20163;-88
2024/02/01 06:44:46;;;;;;;13.90;11.10;;;5.90;1.00;;;;;;6271742;23;20182;-87
2024/02/01 06:47:12;;;;;;;16.48;12.18;;;5.90;1.00;;;;;;6272146;22;20158;-88
2024/02/01 06:50:08;;;;;;;16.00;12.50;;;5.90;1.00;;;;;;6261850;23;20204;-89
2024/02/01 06:52:43;;;;;;;16.45;12.15;;;6.00;1.00;;;;;;6255100;23;20182;-87
2024/02/01 06:55:43;;;;;;;19.77;12.90;;;6.00;1.00;;;;;;6255121;23;20241;-88
2024/02/01 06:58:15;;;;;;;17.20;13.10;;;6.00;1.00;;;;;;6255538;23;20165;-88
2024/02/01 07:01:01;;;;;;;14.20;12.32;;;6.00;1.00;;;;;;6253876;23;20190;-87
2024/02/01 07:03:51;;;;;;;12.77;10.90;;;6.10;1.00;;;;;;6255036;23;20163;-87
2024/02/01 07:09:27;;;;;;;16.75;11.55;;;6.10;1.00;;;;;;6262525;23;20174;-86
2024/02/01 07:12:18;;;;;;;13.57;11.32;;;6.20;1.00;;;;;;6262737;23;20162;-87
2024/02/01 07:14:58;;;;;;;12.93;11.10;;;6.20;1.00;;;;;;6263758;23;20185;-87
2024/02/01 07:17:28;;;;;;;17.02;12.32;;;6.20;1.00;;;;;;6262058;23;20189;-86
2024/02/01 07:20:01;;;;;;;14.13;12.30;;;6.20;1.00;;;;;;6258650;23;20210;-87
2024/02/01 07:22:39;;;;;;;12.35;11.00;;;6.20;1.00;;;;;;6258781;23;20166;-87
2024/02/01 07:25:33;;;;;;;15.13;11.88;;;6.20;1.00;;;;;;6256716;23;20190;-87
2024/02/01 07:58:29;;;;;;;14.93;11.48;;;6.30;1.00;;;;;;6267146;22;20153;-86
2024/02/01 08:00:57;;;;;;;12.20;10.95;;;6.40;1.00;;;;;;6253488;23;20281;-86
2024/02/01 08:03:42;;;;;;;22.17;16.27;;;6.30;1.00;;;;;;6253176;23;20178;-86
2024/02/01 08:08:54;;;;;;;15.20;13.60;;;6.40;1.00;;;;;;6265027;23;20162;-85
2024/02/01 08:11:21;;;;;;;11.80;10.03;;;6.50;1.00;;;;;;6265212;23;20229;-85
2024/02/01 08:13:49;;;;;;;11.77;9.30;;;6.50;1.00;;;;;;6256571;23;20376;-86
2024/02/01 08:16:19;;;;;;;12.50;10.32;;;6.70;1.00;;;;;;6253550;23;20398;-85
2024/02/01 08:18:46;;;;;;;9.37;8.20;;;6.60;99.90;;;;;;6262326;23;20189;-85
2024/02/01 08:21:16;;;;;;;8.45;7.43;;;6.60;99.90;;;;;;6252522;23;20463;-85
2024/02/01 08:23:44;;;;;;;13.03;8.30;;;6.70;99.90;;;;;;6253355;23;20197;-86
2024/02/01 08:26:12;;;;;;;10.87;8.10;;;6.80;99.90;;;;;;6252769;23;20472;-86
2024/02/01 08:28:39;;;;;;;14.45;8.45;;;6.70;99.90;;;;;;6253365;23;20405;-85
2024/02/01 08:31:13;;;;;;;8.90;8.00;;;6.80;99.90;;;;;;6255075;23;20252;-85
2024/02/01 08:33:42;;;;;;;8.57;6.57;;;6.90;99.90;;;;;;6260890;23;20368;-86
2024/02/01 08:36:11;;;;;;;8.05;6.55;;;6.90;99.90;;;;;;6256462;23;20405;-86
2024/02/01 08:38:38;;;;;;;8.27;6.03;;;7.00;1.00;;;;;;6253469;23;20209;-85
2024/02/01 08:41:05;;;;;;;9.63;5.78;;;7.00;1.00;;;;;;6269831;23;20340;-85
2024/02/01 08:43:38;;;;;;;9.90;6.47;;;7.00;1.00;;;;;;6266715;23;20178;-85
2024/02/01 08:46:05;;;;;;;7.53;5.43;;;6.90;1.00;;;;;;6258216;23;20628;-85
2024/02/01 08:48:32;;;;;;;7.35;5.88;;;6.90;1.00;;;;;;6256169;23;20181;-85
2024/02/01 08:51:00;;;;;;;10.68;5.68;;;6.80;1.00;;;;;;6258358;23;20193;-85
2024/02/01 08:53:27;;;;;;;8.50;6.45;;;6.80;1.00;;;;;;6256340;23;20200;-86
2024/02/01 08:55:54;;;;;;;7.82;5.38;;;6.80;99.90;;;;;;6254833;23;20181;-86
2024/02/01 08:58:21;;;;;;;8.77;5.05;;;6.70;99.90;;;;;;6254707;23;20178;-85
2024/02/01 09:00:49;;;;;;;11.25;5.22;;;6.70;1.00;;;;;;6253614;23;20198;-86
2024/02/01 09:03:29;;;;;;;7.07;5.70;;;6.80;1.00;;;;;;6253094;23;20644;-86
2024/02/01 09:06:08;;;;;;;6.03;4.47;;;6.90;1.00;;;;;;6252874;23;20233;-84
2024/02/01 09:08:36;;;;;;;9.70;5.27;;;7.00;99.90;;;;;;6271168;22;20399;-85
2024/02/01 09:11:11;;;;;;;5.53;4.63;;;7.00;99.90;;;;;;6264876;23;20453;-86
2024/02/01 09:13:43;;;;;;;6.72;4.22;;;7.10;99.90;;;;;;6255999;23;20392;-86
2024/02/01 09:16:10;;;;;;;7.30;4.30;;;7.20;99.90;;;;;;6253089;23;20617;-86
2024/02/01 09:18:37;;;;;;;12.60;5.40;;;7.10;99.90;;;;;;6255729;23;20417;-86
2024/02/01 09:21:04;;;;;;;10.57;4.45;;;7.00;99.90;;;;;;6256413;22;20272;-90
2024/02/01 09:23:40;;;;;;;5.87;4.17;;;7.10;99.90;;;;;;6257194;23;20174;-90
2024/02/01 09:26:10;;;;;;;12.48;5.80;;;7.10;99.90;;;;;;6263122;23;20894;-90
2024/02/01 09:28:40;;;;;;;15.23;5.00;;;7.10;99.90;;;;;;6272921;23;20170;-90
2024/02/01 09:31:23;;;;;;;9.32;3.92;;;7.10;99.90;;;;;;6273724;22;20448;-89
2024/02/01 09:33:55;;;;;;;8.48;3.97;;;7.10;99.90;;;;;;6274573;22;20147;-90
2024/02/01 09:36:33;;;;;;;10.32;4.38;;;7.10;99.90;;;;;;6273907;22;20170;-91
2024/02/01 09:39:02;;;;;;;12.00;4.20;;;7.30;73.40;;;;;;6274850;23;20173;-90
2024/02/01 09:41:34;;;;;;;9.82;4.47;;;7.30;99.90;;;;;;6275054;22;20205;-91
2024/02/01 09:44:07;;;;;;;10.35;3.72;;;7.20;1.00;;;;;;6274516;23;20155;-91
2024/02/01 09:46:52;;;;;;;7.57;3.65;;;7.20;1.00;;;;;;6274865;22;20181;-91
2024/02/01 09:49:21;;;;;;;3.20;2.63;;;7.20;1.00;;;;;;6275093;22;20193;-87
2024/02/01 09:51:48;;;;;;;11.70;3.25;;;7.30;1.00;;;;;;6274709;22;20187;-87
2024/02/01 09:54:16;;;;;;;7.97;2.80;;;7.30;1.00;;;;;;6274902;22;20201;-87
2024/02/01 09:56:45;;;;;;;6.47;3.22;;;7.40;1.00;;;;;;6263935;22;20420;-88
2024/02/01 09:59:13;;;;;;;6.47;3.50;;;7.30;99.90;;;;;;6268961;23;20186;-88
2024/02/01 10:01:39;;;;;;;5.87;2.83;;;7.40;99.90;;;;;;6273632;23;20436;-88
2024/02/01 10:04:10;;;;;;;3.33;2.47;;;7.40;99.90;;;;;;6274594;22;20389;-88
2024/02/01 10:06:37;;;;;;;10.57;3.40;;;7.50;99.90;;;;;;6274776;22;20437;-87
2024/02/01 10:09:20;;;;;;;6.43;2.80;;;7.50;1.00;;;;;;6274684;22;20373;-86
2024/02/01 10:11:49;;;;;;;9.27;3.77;;;7.40;99.90;;;;;;6273449;22;20196;-87
2024/02/01 10:14:15;;;;;;;6.53;2.67;;;7.50;99.90;;;;;;6270839;22;20393;-88
2024/02/01 10:16:42;;;;;;;6.53;2.70;;;7.60;99.90;;;;;;6270038;22;20162;-87
2024/02/01 10:19:13;;;;;;;4.93;2.80;;;7.60;99.90;;;;;;6258211;23;20171;-88
2024/02/01 10:21:40;;;;;;;6.23;2.27;;;7.60;99.90;;;;;;6258048;23;20437;-87
2024/02/01 10:24:10;;;;;;;7.25;3.10;;;7.60;99.90;;;;;;6261217;23;20405;-88
2024/02/01 10:26:37;;;;;;;3.55;2.90;;;7.60;51.00;;;;;;6259373;23;20190;-88
2024/02/01 10:29:06;;;;;;;6.30;2.10;;;7.60;6.00;;;;;;6255506;23;20175;-88
2024/02/01 10:31:40;;;;;;;4.85;2.53;;;7.70;1.00;;;;;;6256876;23;20429;-89
2024/02/01 10:34:10;;;;;;;15.17;3.97;;;7.70;68.00;;;;;;6257051;23;20497;-89
2024/02/01 10:36:42;;;;;;;4.38;2.40;;;7.80;1.00;;;;;;6257617;23;20849;-88
2024/02/01 10:39:14;;;;;;;6.53;2.50;;;7.80;1.00;;;;;;6265727;23;20159;-88
2024/02/01 10:41:47;;;;;;;7.40;4.20;;;7.90;1.00;;;;;;6274283;22;20413;-86
2024/02/01 10:44:15;;;;;;;3.33;2.53;;;8.10;1.00;;;;;;6274045;22;20380;-88
2024/02/01 10:46:44;;;;;;;9.83;2.60;;;8.00;1.00;;;;;;6274278;22;20233;-86
2024/02/01 10:49:18;;;;;;;10.23;2.50;;;7.90;1.00;;;;;;6265646;22;20420;-89
2024/02/01 10:51:46;;;;;;;7.80;2.20;;;8.00;1.00;;;;;;6255459;23;20423;-88
2024/02/01 10:54:14;;;;;;;5.03;2.47;;;8.00;1.00;;;;;;6258852;23;20470;-88
2024/02/01 10:56:42;;;;;;;6.63;2.10;;;8.00;1.00;;;;;;6264417;23;20405;-88
2024/02/01 10:59:09;;;;;;;8.00;3.07;;;8.10;1.00;;;;;;6264332;23;20396;-88
2024/02/01 11:01:39;;;;;;;8.27;2.50;;;8.00;1.00;;;;;;6256252;23;20427;-89
2024/02/01 11:04:07;;;;;;;8.63;3.00;;;8.10;1.00;;;;;;6253959;23;20433;-89
2024/02/01 11:06:36;;;;;;;6.17;2.30;;;8.00;1.00;;;;;;6253033;23;20441;-87
2024/02/01 11:09:18;;;;;;;8.77;2.50;;;8.00;1.00;;;;;;6253147;23;20405;-88
2024/02/01 11:11:48;;;;;;;11.70;2.70;;;7.90;1.00;;;;;;6253835;23;20482;-88
2024/02/01 11:14:19;;;;;;;8.63;2.92;;;7.90;1.00;;;;;;6260986;23;20390;-88
2024/02/01 11:16:49;;;;;;;10.70;2.13;;;7.90;1.00;;;;;;6266209;23;20158;-88
2024/02/01 11:19:18;;;;;;;4.50;2.30;;;8.00;1.00;;;;;;6263206;23;20204;-88
2024/02/01 11:21:49;;;;;;;8.13;3.00;;;8.10;1.00;;;;;;6254897;23;20763;-88
2024/02/01 11:24:19;;;;;;;4.13;2.30;;;8.20;1.00;;;;;;6255277;23;20362;-88
2024/02/01 11:26:54;;;;;;;6.63;2.90;;;8.20;1.00;;;;;;6253410;23;20452;-88
2024/02/01 11:29:24;;;;;;;10.80;3.73;;;8.10;1.00;;;;;;6255262;23;20399;-87
2024/02/01 11:31:56;;;;;;;7.27;2.53;;;7.90;1.00;;;;;;6253576;23;20484;-88
2024/02/01 11:34:23;;;;;;;8.35;2.65;;;8.00;1.00;;;;;;6253707;23;20389;-87
2024/02/01 11:36:50;;;;;;;6.88;3.50;;;8.00;1.00;;;;;;6253599;23;20171;-87
2024/02/01 11:39:17;;;;;;;9.02;2.92;;;7.90;1.00;;;;;;6253930;23;20257;-88
2024/02/01 11:41:46;;;;;;;4.60;2.17;;;7.90;1.00;;;;;;6254710;23;20198;-88
2024/02/01 11:44:13;;;;;;;8.80;2.83;;;7.90;1.00;;;;;;6262451;23;20413;-88
2024/02/01 11:46:45;;;;;;;3.60;2.20;;;8.00;1.00;;;;;;6273985;22;20452;-87
2024/02/01 11:49:18;;;;;;;10.50;2.95;;;8.00;1.00;;;;;;6271334;23;20163;-87
2024/02/01 11:51:45;;;;;;;5.90;2.40;;;7.90;1.00;;;;;;6266116;23;20596;-88
2024/02/01 11:54:14;;;;;;;5.75;2.58;;;8.00;1.00;;;;;;6259863;23;20927;-87
2024/02/01 11:56:43;;;;;;;7.18;2.35;;;8.10;1.00;;;;;;6260628;23;20508;-88
2024/02/01 11:59:10;;;;;;;7.47;3.30;;;8.20;1.00;;;;;;6270263;23;20481;-87
2024/02/01 12:01:37;;;;;;;17.30;4.20;;;8.10;1.00;;;;;;6274325;23;20421;-88
2024/02/01 12:04:07;;;;;;;8.40;2.60;;;8.20;1.00;;;;;;6275579;22;20162;-87
2024/02/01 12:06:35;;;;;;;8.23;2.90;;;8.20;1.00;;;;;;6260670;23;20500;-88
2024/02/01 12:09:03;;;;;;;11.23;3.20;;;8.30;1.00;;;;;;6271332;22;20409;-87
2024/02/01 12:11:34;;;;;;;11.07;2.73;;;8.40;1.00;;;;;;6273523;23;20402;-87
2024/02/01 12:14:02;;;;;;;6.17;2.47;;;8.50;1.00;;;;;;6272353;22;20420;-88
2024/02/01 12:16:31;;;;;;;10.53;3.03;;;8.50;1.00;;;;;;6271773;23;20400;-89
2024/02/01 12:18:59;;;;;;;6.20;2.63;;;8.50;1.00;;;;;;6274480;22;20403;-88
2024/02/01 12:21:29;;;;;;;8.13;1.90;;;8.50;1.00;;;;;;6272615;23;20441;-87
2024/02/01 12:23:58;;;;;;;9.27;2.40;;;8.50;1.00;;;;;;6272867;23;20378;-89
2024/02/01 12:26:27;;;;;;;7.77;3.27;;;8.30;1.00;;;;;;6270128;23;20454;-89
2024/02/01 12:28:55;;;;;;;7.73;2.87;;;8.20;1.00;;;;;;6263983;23;20384;-87
2024/02/01 12:31:22;;;;;;;12.10;3.17;;;8.00;1.00;;;;;;6270920;23;20407;-88
2024/02/01 12:33:50;;;;;;;10.68;3.15;;;7.90;1.00;;;;;;6273319;23;20405;-87
2024/02/01 12:36:17;;;;;;;9.43;2.65;;;8.00;1.00;;;;;;6274373;22;20182;-87
2024/02/01 12:38:45;;;;;;;7.20;3.00;;;8.10;1.00;;;;;;6272434;23;20178;-88
2024/02/01 12:41:14;;;;;;;11.77;2.63;;;8.10;1.00;;;;;;6269739;23;20400;-88
2024/02/01 12:43:42;;;;;;;6.43;2.93;;;8.20;1.00;;;;;;6274270;22;20396;-88
2024/02/01 12:46:09;;;;;;;9.60;2.83;;;8.30;1.00;;;;;;6263880;23;20738;-89
2024/02/01 12:48:37;;;;;;;11.07;4.03;;;8.40;1.00;;;;;;6266170;23;20384;-88
2024/02/01 12:51:05;;;;;;;10.90;2.77;;;8.30;1.00;;;;;;6273150;22;20489;-87
2024/02/01 12:53:32;;;;;;;11.40;2.93;;;8.40;1.00;;;;;;6271224;22;20441;-88
2024/02/01 12:55:59;;;;;;;10.20;2.40;;;8.40;1.00;;;;;;6257301;23;20414;-88
2024/02/01 12:58:27;;;;;;;9.37;3.00;;;8.30;1.00;;;;;;6255857;23;20409;-88
2024/02/01 13:00:54;;;;;;;12.20;4.10;;;8.20;1.00;;;;;;6255173;23;20421;-88
2024/02/01 13:03:21;;;;;;;7.77;3.30;;;8.20;1.00;;;;;;6258222;23;20403;-88
2024/02/01 13:05:48;;;;;;;7.03;2.20;;;8.20;1.00;;;;;;6275559;22;20365;-87
2024/02/01 13:08:15;;;;;;;4.80;2.30;;;8.10;1.00;;;;;;6272603;22;20453;-87
2024/02/01 13:10:44;;;;;;;12.00;2.60;;;8.10;1.00;;;;;;6259601;23;20432;-86
2024/02/01 13:13:11;;;;;;;11.93;3.60;;;8.10;1.00;;;;;;6265803;23;20178;-87
2024/02/01 13:15:46;;;;;;;9.70;3.03;;;8.10;1.00;;;;;;6272141;23;20405;-87
2024/02/01 13:18:13;;;;;;;13.70;3.80;;;8.00;1.00;;;;;;6261743;23;20887;-86
2024/02/01 13:20:40;;;;;;;6.80;3.90;;;8.00;1.00;;;;;;6258080;23;20441;-87
2024/02/01 13:23:09;;;;;;;12.10;3.47;;;8.00;1.00;;;;;;6255638;23;20416;-88
2024/02/01 13:25:38;;;;;;;17.63;3.42;;;8.00;1.00;;;;;;6256946;23;20492;-86
2024/02/01 13:28:08;;;;;;;9.35;3.47;;;8.00;1.00;;;;;;6259312;23;20198;-86
2024/02/01 13:30:39;;;;;;;6.50;2.80;;;8.00;1.00;;;;;;6258512;23;20194;-86
2024/02/01 13:33:09;;;;;;;11.77;3.37;;;8.00;1.00;;;;;;6258935;23;20390;-86
2024/02/01 13:35:38;;;;;;;11.00;3.87;;;8.00;1.00;;;;;;6259217;23;20397;-87
2024/02/01 13:38:09;;;;;;;13.43;4.15;;;8.10;1.00;;;;;;6259979;23;20429;-88
2024/02/01 13:40:36;;;;;;;6.10;2.83;;;8.20;1.00;;;;;;6256925;23;20201;-87
2024/02/01 13:43:03;;;;;;;9.73;3.67;;;8.20;1.00;;;;;;6259661;23;20465;-87
2024/02/01 13:45:31;;;;;;;10.10;3.63;;;8.20;1.00;;;;;;6257809;23;20409;-87